KORD/ORD METAR and TAF weather

Enter ICAO airport designator
Station Type Date Time Source
KORD METAR 2023/01/29 18:27 UTC NOAA

KORD 291827Z 34008KT 10SM OVC015 M04/M08 A3020 RMK AO2 T10441083


Station Type Date Time Source
KORD Decoded METAR 2023/01/29 18:27 UTC NOAA

CHICAGO O'HARE INTERNATIONAL, IL, United States (KORD) 41-59N 087-55W 200M
Jan 29, 2023 - 01:27 PM EST / 2023.01.29 1827 UTC
Wind: from the NNW (340 degrees) at 9 MPH (8 KT):0
Visibility: 10 mile(s):0
Sky conditions: overcast
Temperature: 24.1 F (-4.4 C)
Windchill: 14 F (-10 C):1
Dew Point: 17.1 F (-8.3 C)
Relative Humidity: 74%
Pressure (altimeter): 30.2 in. Hg (1022 hPa)
ob: KORD 291827Z 34008KT 10SM OVC015 M04/M08 A3020 RMK AO2 T10441083
cycle: 18

Station Type Date Time Source
KORD TAF 2023/01/29 18:22 UTC NOAA

TAF KORD 291720Z 2918/3024 35013G20KT P6SM OVC015
FM292200 34011KT P6SM OVC022
FM300000 33009KT P6SM SCT025 BKN040
TEMPO 3006/3010 3SM -SN BKN025

Example: see airport list